Terminal Aerodrome Forecast
Issued by NWS

Home | Current Version | Previous Version | Text Only | Print | Product List | Glossary On
Versions: 1 2 3 4 5 6 7 8 9 10 11 12
199
FTPA31 PHFO 262341
TAFHJH
TAF
PHJH 262341Z 2700/2724 05008KT P6SM SCT030 SCT050 BKN250
     FM270500 07007KT P6SM FEW030 SCT040 SCT250
     FM272100 07012KT P6SM SCT030 BKN050=

USA.gov is the U.S. government's official web portal to all federal, state and local government web resources and services.